createdAt,value
2019-02-02T00:01:42.288Z,54.03
2019-02-02T00:04:12.147Z,57.00
2019-02-02T00:06:41.923Z,56.43
2019-02-02T00:09:11.758Z,58.70
2019-02-02T00:11:41.510Z,54.40
2019-02-02T00:14:11.289Z,56.73
2019-02-02T00:16:41.100Z,56.83
2019-02-02T00:19:10.905Z,55.03
2019-02-02T00:21:40.710Z,55.80
2019-02-02T00:24:10.469Z,55.97
2019-02-02T00:26:40.238Z,58.27
2019-02-02T00:29:10.002Z,57.10
2019-02-02T00:31:39.769Z,60.47
2019-02-02T00:34:09.536Z,56.37
2019-02-02T00:36:39.297Z,55.70
2019-02-02T00:39:09.276Z,58.43
2019-02-02T00:41:39.031Z,57.43
2019-02-02T00:44:10.578Z,59.17
2019-02-02T00:46:41.937Z,63.97
2019-02-02T00:49:11.715Z,58.23
2019-02-02T00:51:41.498Z,61.17
2019-02-02T00:54:11.256Z,58.43
2019-02-02T00:56:40.982Z,56.13
2019-02-02T00:59:10.851Z,54.50
2019-02-02T01:01:40.706Z,57.83
2019-02-02T01:04:10.438Z,53.87
2019-02-02T01:06:40.429Z,54.90
2019-02-02T01:09:11.986Z,56.93
2019-02-02T01:11:41.726Z,56.77
2019-02-02T01:14:11.560Z,58.93
2019-02-02T01:16:41.280Z,58.07
2019-02-02T01:19:11.023Z,59.00
2019-02-02T01:21:40.753Z,54.93
2019-02-02T01:24:10.569Z,55.60
2019-02-02T01:26:40.300Z,56.60
2019-02-02T01:29:10.056Z,59.73
2019-02-02T01:31:39.796Z,57.97
2019-02-02T01:34:09.545Z,53.93
2019-02-02T01:36:39.282Z,58.80
2019-02-02T01:39:09.026Z,63.13
2019-02-02T01:41:38.763Z,67.77
2019-02-02T01:44:08.524Z,60.47
2019-02-02T01:46:38.257Z,60.03
2019-02-02T01:49:08.096Z,59.07
2019-02-02T01:51:37.828Z,57.70
2019-02-02T01:54:07.586Z,55.73
2019-02-02T01:56:37.310Z,59.33
2019-02-02T01:59:07.133Z,57.60
2019-02-02T02:01:36.894Z,61.63
2019-02-02T02:04:06.642Z,58.20
2019-02-02T02:06:36.371Z,59.73
2019-02-02T02:09:06.594Z,59.00
2019-02-02T02:11:36.318Z,57.87
2019-02-02T02:14:06.077Z,56.43
2019-02-02T02:16:35.799Z,58.50
2019-02-02T02:19:05.559Z,57.40
2019-02-02T02:21:35.281Z,59.77
2019-02-02T02:24:05.096Z,57.70
2019-02-02T02:26:34.816Z,58.37
2019-02-02T02:29:05.632Z,53.60
2019-02-02T02:31:35.360Z,54.73
2019-02-02T02:34:05.115Z,55.37
2019-02-02T02:36:34.840Z,53.10
2019-02-02T02:39:07.229Z,61.77
2019-02-02T02:41:36.963Z,56.67
2019-02-02T02:44:06.713Z,53.90
2019-02-02T02:46:36.457Z,57.90
2019-02-02T02:49:06.219Z,56.80
2019-02-02T02:51:35.944Z,56.37
2019-02-02T02:54:05.846Z,56.73
2019-02-02T02:56:35.634Z,60.40
2019-02-02T02:59:05.587Z,65.07
2019-02-02T03:01:35.329Z,58.43
2019-02-02T03:04:05.088Z,57.23
2019-02-02T03:06:34.836Z,53.07
2019-02-02T03:09:07.354Z,56.93
2019-02-02T03:11:37.074Z,58.67
2019-02-02T03:14:06.821Z,54.63
2019-02-02T03:16:36.550Z,55.90
2019-02-02T03:19:06.317Z,54.57
2019-02-02T03:21:36.043Z,58.00
2019-02-02T03:24:05.794Z,56.67
2019-02-02T03:26:35.525Z,58.27
2019-02-02T03:29:05.335Z,51.60
2019-02-02T03:31:35.090Z,59.00
2019-02-02T03:34:04.831Z,55.43
2019-02-02T03:36:34.555Z,56.83
2019-02-02T03:39:04.490Z,55.70
2019-02-02T03:41:34.229Z,53.03
2019-02-02T03:44:04.014Z,55.07
2019-02-02T03:46:33.733Z,54.80
2019-02-02T03:49:03.482Z,54.47
2019-02-02T03:51:33.204Z,51.97
2019-02-02T03:54:08.837Z,57.83
2019-02-02T03:56:34.390Z,50.87
2019-02-02T03:59:06.701Z,53.93
2019-02-02T04:01:35.584Z,55.83
2019-02-02T04:04:05.349Z,53.83
2019-02-02T04:06:35.091Z,51.93
2019-02-02T04:09:06.612Z,53.67
2019-02-02T04:11:36.348Z,51.23
2019-02-02T04:14:06.114Z,54.03
2019-02-02T04:16:35.832Z,53.43
2019-02-02T04:19:05.592Z,53.23
2019-02-02T04:21:35.325Z,54.13
2019-02-02T04:24:05.077Z,50.73
2019-02-02T04:26:34.802Z,56.43
2019-02-02T04:29:04.571Z,53.40
2019-02-02T04:31:34.299Z,50.83
2019-02-02T04:34:04.054Z,58.53
2019-02-02T04:36:33.785Z,56.50
2019-02-02T04:39:04.927Z,55.93
2019-02-02T04:41:35.649Z,55.97
2019-02-02T04:44:05.396Z,54.17
2019-02-02T04:46:35.109Z,56.17
2019-02-02T04:49:04.868Z,54.80
2019-02-02T04:51:34.589Z,58.63
2019-02-02T04:54:04.374Z,54.07
2019-02-02T04:56:34.126Z,53.70
2019-02-02T04:59:03.921Z,55.03
2019-02-02T05:01:33.662Z,55.53
2019-02-02T05:04:03.403Z,56.63
2019-02-02T05:06:33.158Z,55.40
2019-02-02T05:09:02.961Z,56.33
2019-02-02T05:11:33.781Z,62.23
2019-02-02T05:14:03.506Z,60.93
2019-02-02T05:16:33.260Z,54.53
2019-02-02T05:19:03.061Z,56.53
2019-02-02T05:21:32.810Z,53.83
2019-02-02T05:24:02.559Z,55.63
2019-02-02T05:26:32.288Z,53.13
2019-02-02T05:29:02.175Z,53.33
2019-02-02T05:31:31.869Z,55.20
2019-02-02T05:34:01.623Z,51.73
2019-02-02T05:36:31.363Z,54.43
2019-02-02T05:39:01.111Z,51.37
2019-02-02T05:41:32.214Z,54.63
2019-02-02T05:44:01.974Z,53.23
2019-02-02T05:46:31.692Z,55.33
2019-02-02T05:49:01.454Z,56.87
2019-02-02T05:51:31.209Z,59.10
2019-02-02T05:54:00.999Z,58.93
2019-02-02T05:56:30.733Z,59.77
2019-02-02T05:59:00.493Z,56.43
2019-02-02T06:01:30.470Z,59.40
2019-02-02T06:04:00.226Z,66.70
2019-02-02T06:06:29.966Z,63.27
2019-02-02T06:08:59.791Z,65.30
2019-02-02T06:11:29.516Z,67.97
2019-02-02T06:13:59.264Z,66.83
2019-02-02T06:16:28.995Z,67.60
2019-02-02T06:18:58.748Z,66.77
2019-02-02T06:21:28.485Z,66.00
2019-02-02T06:23:58.241Z,66.97
2019-02-02T06:26:27.977Z,72.50
2019-02-02T06:28:57.735Z,70.57
2019-02-02T06:31:27.470Z,70.93
2019-02-02T06:33:57.303Z,66.40
2019-02-02T06:36:27.117Z,70.20
2019-02-02T06:38:56.896Z,69.03
2019-02-02T06:41:26.628Z,75.43
2019-02-02T06:43:56.389Z,69.40
2019-02-02T06:46:26.137Z,71.80
2019-02-02T06:48:55.894Z,75.70
2019-02-02T06:51:25.700Z,78.10
2019-02-02T06:53:55.477Z,77.10
2019-02-02T06:56:25.219Z,78.87
2019-02-02T06:58:54.981Z,82.37
2019-02-02T07:01:24.749Z,73.90
2019-02-02T07:03:54.480Z,77.93
2019-02-02T07:06:24.214Z,77.23
2019-02-02T07:08:54.045Z,79.40
2019-02-02T07:11:23.802Z,72.03
2019-02-02T07:13:53.543Z,77.97
2019-02-02T07:16:23.270Z,80.97
2019-02-02T07:18:53.031Z,81.37
2019-02-02T07:21:22.754Z,81.47
2019-02-02T07:23:52.540Z,81.77
2019-02-02T07:26:22.270Z,85.70
2019-02-02T07:28:52.098Z,86.20
2019-02-02T07:31:21.833Z,82.50
2019-02-02T07:33:51.584Z,83.60
2019-02-02T07:36:21.317Z,79.80
2019-02-02T07:38:51.090Z,84.70
2019-02-02T07:41:20.818Z,85.00
2019-02-02T07:43:51.568Z,80.00
2019-02-02T07:46:21.280Z,77.17
2019-02-02T07:48:51.055Z,86.20
2019-02-02T07:51:20.786Z,83.07
2019-02-02T07:53:50.517Z,87.07
2019-02-02T07:56:20.286Z,93.23
2019-02-02T07:58:50.049Z,83.80
2019-02-02T08:01:19.785Z,94.37
2019-02-02T08:03:49.535Z,84.50
2019-02-02T08:06:19.259Z,92.50
2019-02-02T08:08:49.022Z,86.73
2019-02-02T08:11:18.780Z,91.77
2019-02-02T08:13:48.503Z,86.27
2019-02-02T08:16:18.262Z,99.23
2019-02-02T08:18:48.124Z,98.63
2019-02-02T08:21:17.858Z,87.80
2019-02-02T08:23:47.610Z,91.93
2019-02-02T08:26:17.369Z,97.43
2019-02-02T08:28:47.110Z,79.67
2019-02-02T08:31:16.871Z,90.53
2019-02-02T08:33:46.640Z,88.17
2019-02-02T08:36:16.382Z,89.07
2019-02-02T08:38:46.128Z,87.77
2019-02-02T08:41:15.874Z,95.67
2019-02-02T08:43:45.618Z,95.67
2019-02-02T08:46:15.392Z,99.47
2019-02-02T08:48:45.168Z,100.73
2019-02-02T08:51:15.001Z,98.50
2019-02-02T08:53:44.743Z,90.80
2019-02-02T08:56:14.491Z,92.20
2019-02-02T08:58:44.248Z,98.40
2019-02-02T09:01:13.989Z,97.07
2019-02-02T09:03:43.821Z,98.10
2019-02-02T09:06:13.543Z,96.20
2019-02-02T09:08:43.306Z,107.73
2019-02-02T09:11:13.086Z,99.77
2019-02-02T09:13:42.828Z,107.30
2019-02-02T09:16:12.621Z,101.37
2019-02-02T09:18:42.376Z,111.47
2019-02-02T09:21:12.155Z,113.17
2019-02-02T09:23:41.900Z,110.90
2019-02-02T09:26:11.721Z,110.80
2019-02-02T09:28:41.510Z,102.23
2019-02-02T09:31:15.793Z,107.60
2019-02-02T09:33:42.790Z,110.27
2019-02-02T09:36:12.569Z,107.77
2019-02-02T09:38:42.301Z,100.33
2019-02-02T09:41:12.164Z,105.17
2019-02-02T09:43:41.907Z,108.27
2019-02-02T09:46:11.675Z,109.47
2019-02-02T09:48:41.431Z,109.77
2019-02-02T09:51:11.212Z,107.37
2019-02-02T09:53:40.964Z,102.00
2019-02-02T09:56:10.717Z,103.67
2019-02-02T09:58:40.545Z,105.83
2019-02-02T10:01:10.396Z,106.13
2019-02-02T10:03:40.171Z,104.77
2019-02-02T10:06:09.917Z,104.80
2019-02-02T10:08:39.760Z,104.20
2019-02-02T10:11:09.561Z,104.07
2019-02-02T10:13:39.344Z,104.13
2019-02-02T10:16:09.133Z,101.00
2019-02-02T10:18:38.884Z,106.57
2019-02-02T10:21:08.663Z,106.20
2019-02-02T10:23:38.417Z,106.40
2019-02-02T10:26:08.277Z,105.30
2019-02-02T10:28:38.008Z,104.03
2019-02-02T10:31:07.793Z,107.67
2019-02-02T10:33:37.556Z,105.30
2019-02-02T10:36:07.326Z,111.53
2019-02-02T10:38:37.146Z,109.03
2019-02-02T10:41:07.025Z,107.67
2019-02-02T10:43:36.849Z,105.97
2019-02-02T10:46:06.727Z,104.40
2019-02-02T10:48:36.447Z,114.43
2019-02-02T10:51:06.230Z,112.80
2019-02-02T10:53:35.991Z,101.83
2019-02-02T10:56:05.771Z,104.03
2019-02-02T10:58:35.517Z,104.53
2019-02-02T11:01:05.302Z,101.57
2019-02-02T11:03:35.051Z,106.90
2019-02-02T11:06:05.003Z,105.60
2019-02-02T11:08:34.797Z,102.60
2019-02-02T11:11:04.830Z,102.17
2019-02-02T11:13:34.592Z,110.70
2019-02-02T11:16:04.419Z,106.23
2019-02-02T11:18:34.624Z,109.43
2019-02-02T11:21:04.449Z,109.60
2019-02-02T11:23:34.178Z,109.87
2019-02-02T11:26:04.029Z,110.53
2019-02-02T11:28:33.808Z,102.47
2019-02-02T11:31:03.551Z,110.00
2019-02-02T11:33:33.365Z,105.63
2019-02-02T11:36:03.151Z,103.40
2019-02-02T11:38:32.896Z,105.50
2019-02-02T11:41:02.688Z,107.90
2019-02-02T11:43:32.444Z,114.27
2019-02-02T11:46:02.213Z,109.80
2019-02-02T11:48:31.963Z,106.73
2019-02-02T11:51:01.745Z,101.97
2019-02-02T11:53:31.559Z,106.97
2019-02-02T11:56:01.415Z,106.87
2019-02-02T11:58:31.131Z,105.93
2019-02-02T12:01:00.909Z,111.30
2019-02-02T12:03:30.652Z,113.00
2019-02-02T12:06:00.445Z,108.33
2019-02-02T12:08:30.216Z,108.87
2019-02-02T12:10:59.996Z,112.50
2019-02-02T12:13:29.740Z,110.97
2019-02-02T12:15:59.575Z,108.13
2019-02-02T12:18:29.324Z,113.43
2019-02-02T12:20:59.078Z,105.80
2019-02-02T12:23:28.823Z,110.77
2019-02-02T12:25:58.616Z,105.73
2019-02-02T12:28:28.350Z,106.57
2019-02-02T12:30:58.113Z,103.90
2019-02-02T12:33:27.882Z,107.97
2019-02-02T12:35:57.661Z,103.80
2019-02-02T12:38:27.408Z,109.17
2019-02-02T12:40:59.629Z,109.47
2019-02-02T12:43:29.596Z,107.63
2019-02-02T12:45:59.432Z,110.43
2019-02-02T12:48:32.219Z,101.97
2019-02-02T12:51:00.640Z,108.47
2019-02-02T12:53:30.378Z,106.40
2019-02-02T12:56:00.181Z,116.53
2019-02-02T12:58:29.920Z,109.57
2019-02-02T13:00:59.706Z,108.53
2019-02-02T13:03:29.455Z,105.20
2019-02-02T13:05:59.202Z,104.03
2019-02-02T13:08:28.952Z,105.23
2019-02-02T13:10:58.750Z,103.73
2019-02-02T13:13:28.634Z,107.57
2019-02-02T13:15:58.369Z,105.87
2019-02-02T13:18:28.218Z,113.07
2019-02-02T13:20:57.982Z,105.83
2019-02-02T13:23:27.754Z,111.63
2019-02-02T13:26:04.872Z,107.03
2019-02-02T13:28:29.022Z,114.07
2019-02-02T13:30:58.754Z,117.10
2019-02-02T13:33:28.544Z,119.30
2019-02-02T13:35:58.315Z,123.40
2019-02-02T13:38:28.115Z,122.70
2019-02-02T13:40:57.872Z,125.03
2019-02-02T13:43:27.645Z,128.80
2019-02-02T13:45:57.376Z,122.57
2019-02-02T13:48:27.149Z,130.37
2019-02-02T13:50:56.889Z,122.40
2019-02-02T13:53:26.704Z,126.50
2019-02-02T13:55:56.464Z,139.13
2019-02-02T13:58:27.222Z,134.00
2019-02-02T14:00:56.946Z,131.37
2019-02-02T14:03:26.718Z,134.97
2019-02-02T14:05:56.466Z,132.33
2019-02-02T14:08:26.237Z,134.73
2019-02-02T14:10:55.973Z,134.40
2019-02-02T14:13:25.755Z,124.37
2019-02-02T14:15:55.536Z,139.67
2019-02-02T14:18:25.263Z,150.30
2019-02-02T14:20:55.065Z,144.60
2019-02-02T14:23:24.836Z,151.03
2019-02-02T14:25:55.538Z,140.40
2019-02-02T14:28:28.443Z,141.67
2019-02-02T14:30:56.870Z,146.00
2019-02-02T14:33:26.664Z,166.50
2019-02-02T14:35:56.423Z,152.77
2019-02-02T14:38:26.209Z,151.67
2019-02-02T14:40:55.964Z,162.07
2019-02-02T14:43:25.737Z,142.20
2019-02-02T14:45:55.470Z,163.80
2019-02-02T14:48:25.223Z,177.93
2019-02-02T14:50:54.963Z,155.93
2019-02-02T14:53:24.733Z,147.47
2019-02-02T14:55:54.482Z,155.10
2019-02-02T14:58:25.151Z,159.47
2019-02-02T15:00:54.963Z,141.57
2019-02-02T15:03:26.172Z,162.03
2019-02-02T15:05:56.091Z,156.20
2019-02-02T15:08:25.863Z,148.23
2019-02-02T15:10:55.647Z,150.37
2019-02-02T15:13:25.360Z,160.70
2019-02-02T15:15:55.097Z,160.83
2019-02-02T15:18:24.871Z,178.10
2019-02-02T15:20:54.631Z,164.90
2019-02-02T15:23:24.381Z,147.07
2019-02-02T15:25:54.133Z,166.73
2019-02-02T15:28:23.917Z,165.20
2019-02-02T15:30:55.355Z,160.43
2019-02-02T15:33:37.206Z,169.23
2019-02-02T15:35:56.720Z,164.07
2019-02-02T15:38:26.472Z,177.13
2019-02-02T15:40:59.147Z,172.70
2019-02-02T15:43:27.735Z,171.90
2019-02-02T15:45:57.514Z,182.90
2019-02-02T15:48:27.359Z,185.77
2019-02-02T15:50:57.133Z,177.30
2019-02-02T15:53:26.984Z,177.40
2019-02-02T15:55:56.785Z,185.00
2019-02-02T15:58:26.707Z,177.40
2019-02-02T16:00:56.645Z,173.30
2019-02-02T16:03:26.431Z,171.77
2019-02-02T16:05:56.192Z,182.53
2019-02-02T16:08:25.960Z,186.77
2019-02-02T16:10:55.722Z,187.67
2019-02-02T16:13:25.505Z,187.37
2019-02-02T16:15:55.428Z,188.60
2019-02-02T16:18:25.273Z,193.23
2019-02-02T16:20:54.998Z,191.30
2019-02-02T16:23:24.775Z,176.77
2019-02-02T16:25:54.533Z,176.03
2019-02-02T16:28:24.336Z,192.73
2019-02-02T16:30:54.134Z,170.47
2019-02-02T16:33:24.262Z,217.93
2019-02-02T16:35:54.045Z,229.93
2019-02-02T16:38:24.028Z,169.27
2019-02-02T16:40:53.836Z,175.77
2019-02-02T16:43:23.599Z,205.27
2019-02-02T16:45:53.385Z,191.10
2019-02-02T16:48:23.216Z,186.90
2019-02-02T16:50:52.939Z,183.83
2019-02-02T16:53:23.780Z,163.60
2019-02-02T16:55:53.599Z,183.27
2019-02-02T16:58:23.385Z,176.40
2019-02-02T17:00:53.312Z,175.07
2019-02-02T17:03:23.070Z,193.60
2019-02-02T17:05:52.871Z,177.03
2019-02-02T17:08:22.613Z,183.33
2019-02-02T17:10:52.505Z,167.90
2019-02-02T17:13:22.244Z,178.40
2019-02-02T17:15:52.084Z,184.83
2019-02-02T17:18:21.818Z,184.80
2019-02-02T17:20:51.588Z,184.47
2019-02-02T17:23:21.428Z,182.30
2019-02-02T17:25:51.278Z,174.87
2019-02-02T17:28:21.055Z,171.47
2019-02-02T17:30:50.899Z,189.77
2019-02-02T17:33:20.639Z,178.50
2019-02-02T17:35:50.439Z,196.37
2019-02-02T17:38:20.202Z,175.37
2019-02-02T17:40:49.976Z,187.63
2019-02-02T17:43:19.908Z,196.30
2019-02-02T17:45:49.702Z,167.07
2019-02-02T17:48:19.432Z,184.70
2019-02-02T17:50:49.221Z,187.47
2019-02-02T17:53:18.966Z,185.97
2019-02-02T17:55:48.815Z,178.73
2019-02-02T17:58:18.634Z,170.77
2019-02-02T18:00:50.048Z,173.00
2019-02-02T18:03:19.814Z,169.43
2019-02-02T18:05:49.630Z,173.80
2019-02-02T18:08:19.377Z,157.73
2019-02-02T18:10:49.129Z,169.57
2019-02-02T18:13:18.888Z,180.50
2019-02-02T18:15:48.645Z,199.03
2019-02-02T18:18:18.425Z,174.37
2019-02-02T18:20:48.260Z,154.77
2019-02-02T18:23:18.687Z,147.53
2019-02-02T18:25:48.534Z,165.47
2019-02-02T18:28:19.551Z,163.43
2019-02-02T18:30:49.299Z,161.70
2019-02-02T18:33:19.134Z,164.57
2019-02-02T18:35:49.997Z,166.33
2019-02-02T18:38:20.379Z,160.63
2019-02-02T18:40:50.192Z,161.20
2019-02-02T18:43:20.002Z,165.17
2019-02-02T18:45:49.864Z,174.77
2019-02-02T18:48:19.610Z,182.83
2019-02-02T18:50:49.480Z,166.07
2019-02-02T18:53:19.285Z,165.47
2019-02-02T18:55:52.008Z,163.10
2019-02-02T18:58:21.873Z,182.40
2019-02-02T19:00:51.657Z,178.80
2019-02-02T19:03:21.516Z,170.53
2019-02-02T19:05:51.384Z,177.97
2019-02-02T19:08:21.137Z,178.57
2019-02-02T19:10:50.931Z,182.43
2019-02-02T19:13:20.745Z,170.90
2019-02-02T19:15:50.554Z,184.43
2019-02-02T19:18:20.320Z,196.67
2019-02-02T19:20:50.219Z,186.97
2019-02-02T19:23:25.459Z,184.87
2019-02-02T19:25:51.607Z,186.80
2019-02-02T19:28:21.373Z,174.77
2019-02-02T19:30:53.551Z,187.20
2019-02-02T19:33:22.703Z,194.37
2019-02-02T19:35:52.553Z,191.30
2019-02-02T19:38:22.325Z,185.63
2019-02-02T19:40:52.108Z,179.60
2019-02-02T19:43:21.861Z,182.00
2019-02-02T19:45:53.731Z,194.43
2019-02-02T19:48:23.202Z,197.30
2019-02-02T19:50:53.006Z,201.27
2019-02-02T19:53:22.755Z,210.90
2019-02-02T19:55:52.570Z,226.00
2019-02-02T19:58:22.388Z,202.23
2019-02-02T20:00:52.176Z,207.73
2019-02-02T20:03:22.014Z,211.43
2019-02-02T20:05:51.917Z,210.80
2019-02-02T20:08:21.693Z,203.07
2019-02-02T20:10:51.587Z,194.03
2019-02-02T20:13:21.407Z,202.80
2019-02-02T20:15:51.223Z,207.50
2019-02-02T20:18:21.003Z,197.47
2019-02-02T20:20:50.766Z,208.57
2019-02-02T20:23:20.614Z,206.67
2019-02-02T20:25:50.389Z,207.90
2019-02-02T20:28:20.265Z,221.13
2019-02-02T20:30:50.248Z,205.50
2019-02-02T20:33:20.522Z,226.67
2019-02-02T20:35:50.262Z,224.43
2019-02-02T20:38:20.035Z,205.50
2019-02-02T20:40:49.787Z,205.20
2019-02-02T20:43:19.589Z,216.97
2019-02-02T20:45:49.318Z,217.57
2019-02-02T20:48:19.139Z,207.03
2019-02-02T20:50:48.861Z,232.80
2019-02-02T20:53:19.039Z,199.03
2019-02-02T20:55:48.800Z,216.00
2019-02-02T20:58:18.588Z,197.43
2019-02-02T21:00:49.381Z,200.70
2019-02-02T21:03:19.157Z,209.60
2019-02-02T21:05:52.553Z,199.47
2019-02-02T21:08:20.775Z,212.93
2019-02-02T21:10:50.523Z,206.20
2019-02-02T21:13:20.319Z,194.23
2019-02-02T21:15:50.055Z,208.07
2019-02-02T21:18:20.220Z,200.37
2019-02-02T21:20:49.972Z,223.97
2019-02-02T21:23:19.752Z,203.23
2019-02-02T21:25:49.468Z,204.63
2019-02-02T21:28:19.282Z,206.00
2019-02-02T21:30:49.464Z,199.87
2019-02-02T21:33:19.237Z,229.97
2019-02-02T21:35:49.100Z,222.27
2019-02-02T21:38:18.844Z,208.47
2019-02-02T21:40:48.597Z,198.80
2019-02-02T21:43:18.726Z,188.53
2019-02-02T21:45:48.559Z,216.17
2019-02-02T21:48:18.306Z,207.70
2019-02-02T21:50:48.042Z,193.63
2019-02-02T21:53:17.824Z,209.00
2019-02-02T21:55:47.577Z,201.83
2019-02-02T21:58:17.424Z,212.07
2019-02-02T22:00:47.185Z,199.70
2019-02-02T22:03:16.954Z,219.10
2019-02-02T22:05:46.695Z,201.63
2019-02-02T22:08:16.483Z,199.10
2019-02-02T22:10:46.254Z,190.93
2019-02-02T22:13:16.023Z,191.47
2019-02-02T22:15:45.775Z,189.63
2019-02-02T22:18:15.542Z,198.13
2019-02-02T22:20:45.302Z,199.93
2019-02-02T22:23:15.230Z,201.50
2019-02-02T22:25:44.987Z,185.87
2019-02-02T22:28:14.757Z,189.87
2019-02-02T22:30:44.591Z,196.83
2019-02-02T22:33:14.400Z,198.90
2019-02-02T22:35:44.443Z,202.17
2019-02-02T22:38:14.329Z,200.10
2019-02-02T22:40:44.151Z,202.50
2019-02-02T22:43:14.055Z,197.47
2019-02-02T22:45:43.788Z,212.00
2019-02-02T22:48:13.959Z,201.47
2019-02-02T22:50:43.865Z,205.37
2019-02-02T22:53:14.544Z,196.27
2019-02-02T22:55:44.295Z,196.10
2019-02-02T22:58:14.091Z,178.03
2019-02-02T23:01:03.343Z,207.77
2019-02-02T23:03:57.497Z,196.00
2019-02-02T23:06:45.716Z,191.37
2019-02-02T23:09:30.476Z,187.53
2019-02-02T23:12:12.537Z,188.13
2019-02-02T23:15:10.321Z,181.77
2019-02-02T23:17:40.179Z,176.13
2019-02-02T23:20:09.946Z,179.13
2019-02-02T23:22:39.700Z,188.33
2019-02-02T23:25:09.460Z,185.63
2019-02-02T23:27:39.238Z,185.47
2019-02-02T23:30:16.230Z,180.17
2019-02-02T23:32:45.964Z,186.37
2019-02-02T23:35:15.728Z,171.03
2019-02-02T23:37:45.479Z,164.83
2019-02-02T23:40:15.247Z,167.73
2019-02-02T23:42:45.355Z,188.30
2019-02-02T23:45:15.189Z,173.10
2019-02-02T23:47:44.926Z,181.70
2019-02-02T23:50:14.682Z,175.27
2019-02-02T23:52:44.423Z,183.37
2019-02-02T23:55:14.201Z,177.47
2019-02-02T23:57:44.016Z,177.80
